createdAt,value
2019-03-17T00:00:07.115Z,6.6
2019-03-17T00:01:07.079Z,6.62
2019-03-17T00:02:07.058Z,6.63
2019-03-17T00:03:07.050Z,6.63
2019-03-17T00:04:07.088Z,6.63
2019-03-17T00:05:07.084Z,6.61
2019-03-17T00:06:08.254Z,6.63
2019-03-17T00:07:07.096Z,6.6
2019-03-17T00:08:07.053Z,6.57
2019-03-17T00:09:07.126Z,6.54
2019-03-17T00:10:07.037Z,6.48
2019-03-17T00:11:07.157Z,6.5
2019-03-17T00:12:07.071Z,6.48
2019-03-17T00:13:07.090Z,6.49
2019-03-17T00:14:07.042Z,6.46
2019-03-17T00:15:07.137Z,6.37
2019-03-17T00:16:07.083Z,6.35
2019-03-17T00:17:07.069Z,6.38
2019-03-17T00:18:07.134Z,6.39
2019-03-17T00:19:07.054Z,6.38
2019-03-17T00:20:07.046Z,6.37
2019-03-17T00:21:07.040Z,6.38
2019-03-17T00:22:07.105Z,6.36
2019-03-17T00:23:07.044Z,6.4
2019-03-17T00:24:07.084Z,6.4
2019-03-17T00:25:10.709Z,6.39
2019-03-17T00:26:07.054Z,6.4
2019-03-17T00:27:07.051Z,6.42
2019-03-17T00:28:07.027Z,6.44
2019-03-17T00:29:07.040Z,6.43
2019-03-17T00:30:07.122Z,6.44
2019-03-17T00:31:07.010Z,6.48
2019-03-17T00:32:07.035Z,6.48
2019-03-17T00:33:07.086Z,6.48
2019-03-17T00:34:07.331Z,6.49
2019-03-17T00:35:07.112Z,6.52
2019-03-17T00:36:07.046Z,6.53
2019-03-17T00:37:07.042Z,6.51
2019-03-17T00:38:07.031Z,6.51
2019-03-17T00:39:07.079Z,6.52
2019-03-17T00:40:07.048Z,6.51
2019-03-17T00:41:07.016Z,6.53
2019-03-17T00:42:07.140Z,6.53
2019-03-17T00:43:07.018Z,6.58
2019-03-17T00:44:07.016Z,6.52
2019-03-17T00:45:06.997Z,6.53
2019-03-17T00:46:07.028Z,6.53
2019-03-17T00:47:07.173Z,6.57
2019-03-17T00:48:07.066Z,6.63
2019-03-17T00:49:07.020Z,6.67
2019-03-17T00:50:07.010Z,6.72
2019-03-17T00:51:06.986Z,6.76
2019-03-17T00:52:06.992Z,6.77
2019-03-17T00:53:06.971Z,6.85
2019-03-17T00:54:06.993Z,6.91
2019-03-17T00:55:07.015Z,6.94
2019-03-17T00:56:07.067Z,6.99
2019-03-17T00:57:06.970Z,7.02
2019-03-17T00:58:06.969Z,7.07
2019-03-17T00:59:06.976Z,7.12
2019-03-17T01:00:06.983Z,7.18
2019-03-17T01:01:06.997Z,7.21
2019-03-17T01:02:06.970Z,7.27
2019-03-17T01:03:06.958Z,7.36
2019-03-17T01:04:06.952Z,7.43
2019-03-17T01:05:06.977Z,7.44
2019-03-17T01:06:06.961Z,7.49
2019-03-17T01:07:07.320Z,7.53
2019-03-17T01:08:06.951Z,7.55
2019-03-17T01:09:06.979Z,7.58
2019-03-17T01:10:06.953Z,7.65
2019-03-17T01:11:06.958Z,7.68
2019-03-17T01:12:07.865Z,7.73
2019-03-17T01:13:07.169Z,7.76
2019-03-17T01:14:06.993Z,7.8
2019-03-17T01:15:06.980Z,7.83
2019-03-17T01:16:06.954Z,7.9
2019-03-17T01:17:06.920Z,7.89
2019-03-17T01:18:06.927Z,7.92
2019-03-17T01:19:06.953Z,7.92
2019-03-17T01:20:06.939Z,7.92
2019-03-17T01:21:06.950Z,7.92
2019-03-17T01:22:06.931Z,7.91
2019-03-17T01:23:06.938Z,7.91
2019-03-17T01:24:06.933Z,7.93
2019-03-17T01:25:06.941Z,7.94
2019-03-17T01:26:06.932Z,7.94
2019-03-17T01:27:06.941Z,7.91
2019-03-17T01:28:06.922Z,7.94
2019-03-17T01:29:06.937Z,7.91
2019-03-17T01:30:06.943Z,7.93
2019-03-17T01:31:06.959Z,7.93
2019-03-17T01:32:06.955Z,7.9
2019-03-17T01:33:06.926Z,7.89
2019-03-17T01:34:06.952Z,7.86
2019-03-17T01:35:10.698Z,7.87
2019-03-17T01:36:06.931Z,7.86
2019-03-17T01:37:06.932Z,7.84
2019-03-17T01:38:06.920Z,7.83
2019-03-17T01:39:06.987Z,7.83
2019-03-17T01:40:06.957Z,7.82
2019-03-17T01:41:06.897Z,7.78
2019-03-17T01:42:06.910Z,7.76
2019-03-17T01:43:06.901Z,7.76
2019-03-17T01:44:06.897Z,7.72
2019-03-17T01:45:06.928Z,7.71
2019-03-17T01:46:06.901Z,7.68
2019-03-17T01:47:06.893Z,7.67
2019-03-17T01:48:06.905Z,7.65
2019-03-17T01:49:06.906Z,7.62
2019-03-17T01:50:06.899Z,7.6
2019-03-17T01:51:06.888Z,7.59
2019-03-17T01:52:06.913Z,7.57
2019-03-17T01:53:06.883Z,7.58
2019-03-17T01:54:06.934Z,7.54
2019-03-17T01:55:06.970Z,7.54
2019-03-17T01:56:06.907Z,7.54
2019-03-17T01:57:06.866Z,7.49
2019-03-17T01:58:06.878Z,7.49
2019-03-17T01:59:06.903Z,7.44
2019-03-17T02:00:06.903Z,7.47
2019-03-17T02:01:06.906Z,7.46
2019-03-17T02:02:06.915Z,7.39
2019-03-17T02:03:06.887Z,7.37
2019-03-17T02:04:07.912Z,7.36
2019-03-17T02:05:06.877Z,7.32
2019-03-17T02:06:06.941Z,7.27
2019-03-17T02:07:06.891Z,7.25
2019-03-17T02:08:06.883Z,7.23
2019-03-17T02:09:06.886Z,7.2
2019-03-17T02:10:06.874Z,7.19
2019-03-17T02:11:06.869Z,7.17
2019-03-17T02:12:06.926Z,7.14
2019-03-17T02:13:06.852Z,7.15
2019-03-17T02:14:06.892Z,7.12
2019-03-17T02:15:06.846Z,7.12
2019-03-17T02:16:06.880Z,7.12
2019-03-17T02:17:06.883Z,7.09
2019-03-17T02:18:06.867Z,7.06
2019-03-17T02:19:06.847Z,7.04
2019-03-17T02:20:06.911Z,7.04
2019-03-17T02:21:06.839Z,7.03
2019-03-17T02:22:06.896Z,6.98
2019-03-17T02:23:06.913Z,6.93
2019-03-17T02:24:06.862Z,6.93
2019-03-17T02:25:06.869Z,6.93
2019-03-17T02:26:06.867Z,6.93
2019-03-17T02:27:06.874Z,6.92
2019-03-17T02:28:06.861Z,6.88
2019-03-17T02:29:06.864Z,6.83
2019-03-17T02:30:06.880Z,6.85
2019-03-17T02:31:06.893Z,6.8
2019-03-17T02:32:06.999Z,6.77
2019-03-17T02:33:06.901Z,6.73
2019-03-17T02:34:06.855Z,6.72
2019-03-17T02:35:06.830Z,6.76
2019-03-17T02:36:06.827Z,6.74
2019-03-17T02:37:06.871Z,6.71
2019-03-17T02:38:07.012Z,6.7
2019-03-17T02:39:06.987Z,6.7
2019-03-17T02:40:06.894Z,6.71
2019-03-17T02:41:06.885Z,6.73
2019-03-17T02:42:06.909Z,6.73
2019-03-17T02:43:06.884Z,6.75
2019-03-17T02:44:06.880Z,6.74
2019-03-17T02:45:06.846Z,6.72
2019-03-17T02:46:06.881Z,6.7
2019-03-17T02:47:06.823Z,6.7
2019-03-17T02:48:06.887Z,6.69
2019-03-17T02:49:06.823Z,6.65
2019-03-17T02:50:06.865Z,6.67
2019-03-17T02:51:06.815Z,6.63
2019-03-17T02:52:06.848Z,6.62
2019-03-17T02:53:06.876Z,6.62
2019-03-17T02:54:06.874Z,6.63
2019-03-17T02:55:06.841Z,6.63
2019-03-17T02:56:06.839Z,6.63
2019-03-17T02:57:06.857Z,6.62
2019-03-17T02:58:06.854Z,6.58
2019-03-17T02:59:06.825Z,6.53
2019-03-17T03:00:06.859Z,6.54
2019-03-17T03:01:06.819Z,6.52
2019-03-17T03:02:06.821Z,6.51
2019-03-17T03:03:06.845Z,6.5
2019-03-17T03:04:06.866Z,6.48
2019-03-17T03:05:06.871Z,6.51
2019-03-17T03:06:06.856Z,6.5
2019-03-17T03:07:06.857Z,6.49
2019-03-17T03:08:06.830Z,6.41
2019-03-17T03:09:06.825Z,6.39
2019-03-17T03:10:06.833Z,6.37
2019-03-17T03:11:06.841Z,6.34
2019-03-17T03:12:06.882Z,6.31
2019-03-17T03:13:06.830Z,6.31
2019-03-17T03:14:06.823Z,6.29
2019-03-17T03:15:06.817Z,6.28
2019-03-17T03:16:06.804Z,6.21
2019-03-17T03:17:06.801Z,6.2
2019-03-17T03:18:06.835Z,6.17
2019-03-17T03:19:06.798Z,6.14
2019-03-17T03:20:06.940Z,6.13
2019-03-17T03:21:06.889Z,6.11
2019-03-17T03:22:06.819Z,6.11
2019-03-17T03:23:06.788Z,6.1
2019-03-17T03:24:06.855Z,6.06
2019-03-17T03:25:06.769Z,6.08
2019-03-17T03:26:06.781Z,6.07
2019-03-17T03:27:06.796Z,5.83
2019-03-17T03:28:06.826Z,5.87
2019-03-17T03:29:06.788Z,5.92
2019-03-17T03:30:06.954Z,5.88
2019-03-17T03:31:06.905Z,5.87
2019-03-17T03:32:06.836Z,5.86
2019-03-17T03:33:06.863Z,5.86
2019-03-17T03:34:06.991Z,5.87
2019-03-17T03:35:06.809Z,5.86
2019-03-17T03:36:12.500Z,5.87
2019-03-17T03:37:06.786Z,5.88
2019-03-17T03:38:06.823Z,5.89
2019-03-17T03:39:06.867Z,5.88
2019-03-17T03:40:06.830Z,5.87
2019-03-17T03:41:06.812Z,5.88
2019-03-17T03:42:06.757Z,5.83
2019-03-17T03:43:06.942Z,5.81
2019-03-17T03:44:06.790Z,5.76
2019-03-17T03:45:06.799Z,5.73
2019-03-17T03:46:06.754Z,5.71
2019-03-17T03:47:06.772Z,5.75
2019-03-17T03:48:07.086Z,5.71
2019-03-17T03:49:06.770Z,5.71
2019-03-17T03:50:06.772Z,5.71
2019-03-17T03:51:06.833Z,5.7
2019-03-17T03:52:06.851Z,5.7
2019-03-17T03:53:07.020Z,5.66
2019-03-17T03:54:06.769Z,5.64
2019-03-17T03:55:06.892Z,5.64
2019-03-17T03:56:06.764Z,5.64
2019-03-17T03:57:06.785Z,5.65
2019-03-17T03:58:06.800Z,5.6
2019-03-17T03:59:06.798Z,5.63
2019-03-17T04:00:06.730Z,5.59
2019-03-17T04:01:06.742Z,5.61
2019-03-17T04:02:06.756Z,5.62
2019-03-17T04:03:06.752Z,5.63
2019-03-17T04:04:06.826Z,5.63
2019-03-17T04:05:07.099Z,5.59
2019-03-17T04:06:06.738Z,5.61
2019-03-17T04:07:06.761Z,5.6
2019-03-17T04:08:06.737Z,5.61
2019-03-17T04:09:06.709Z,5.61
2019-03-17T04:10:06.739Z,5.56
2019-03-17T04:11:06.689Z,5.48
2019-03-17T04:12:06.756Z,5.48
2019-03-17T04:13:06.765Z,5.47
2019-03-17T04:14:06.761Z,5.46
2019-03-17T04:15:06.730Z,5.48
2019-03-17T04:16:06.724Z,5.31
2019-03-17T04:17:06.750Z,5.35
2019-03-17T04:18:06.694Z,5.36
2019-03-17T04:19:06.771Z,5.37
2019-03-17T04:20:06.693Z,5.37
2019-03-17T04:21:06.770Z,5.38
2019-03-17T04:22:06.830Z,5.35
2019-03-17T04:23:06.710Z,5.4
2019-03-17T04:24:06.730Z,5.39
2019-03-17T04:25:06.715Z,5.4
2019-03-17T04:26:06.740Z,5.4
2019-03-17T04:27:06.726Z,5.39
2019-03-17T04:28:06.708Z,5.4
2019-03-17T04:29:06.713Z,5.32
2019-03-17T04:30:06.722Z,5.21
2019-03-17T04:31:06.707Z,5.26
2019-03-17T04:32:06.686Z,5.25
2019-03-17T04:33:06.793Z,5.26
2019-03-17T04:34:06.773Z,5.29
2019-03-17T04:35:06.688Z,5.28
2019-03-17T04:36:06.690Z,5.3
2019-03-17T04:37:06.676Z,5.3
2019-03-17T04:38:06.728Z,5.32
2019-03-17T04:39:06.676Z,5.32
2019-03-17T04:40:06.768Z,5.32
2019-03-17T04:41:06.700Z,5.35
2019-03-17T04:42:06.673Z,5.35
2019-03-17T04:43:06.705Z,5.37
2019-03-17T04:44:06.664Z,5.35
2019-03-17T04:45:06.662Z,5.37
2019-03-17T04:46:06.649Z,5.4
2019-03-17T04:47:06.647Z,5.42
2019-03-17T04:48:06.666Z,5.43
2019-03-17T04:49:06.666Z,5.44
2019-03-17T04:50:06.656Z,5.43
2019-03-17T04:51:06.644Z,5.28
2019-03-17T04:52:06.638Z,5.28
2019-03-17T04:53:06.640Z,5.3
2019-03-17T04:54:06.678Z,5.31
2019-03-17T04:55:06.729Z,5.31
2019-03-17T04:56:08.464Z,5.36
2019-03-17T04:57:06.648Z,5.08
2019-03-17T04:58:06.654Z,5.11
2019-03-17T04:59:06.634Z,5.14
2019-03-17T05:00:06.647Z,5.13
2019-03-17T05:01:06.622Z,5.16
2019-03-17T05:02:06.611Z,5.17
2019-03-17T05:03:06.661Z,5.16
2019-03-17T05:04:06.631Z,5.05
2019-03-17T05:05:06.626Z,5.04
2019-03-17T05:06:06.624Z,5.03
2019-03-17T05:07:06.625Z,5.07
2019-03-17T05:08:06.621Z,5.03
2019-03-17T05:09:06.597Z,5.01
2019-03-17T05:10:06.602Z,5.02
2019-03-17T05:11:06.623Z,4.88
2019-03-17T05:12:06.615Z,4.8
2019-03-17T05:13:06.602Z,4.81
2019-03-17T05:14:06.632Z,4.84
2019-03-17T05:15:06.633Z,4.87
2019-03-17T05:16:06.620Z,4.89
2019-03-17T05:17:06.741Z,4.9
2019-03-17T05:18:06.623Z,4.95
2019-03-17T05:19:06.589Z,4.88
2019-03-17T05:20:06.586Z,4.88
2019-03-17T05:21:06.604Z,4.92
2019-03-17T05:22:06.606Z,4.93
2019-03-17T05:23:06.679Z,4.94
2019-03-17T05:24:06.596Z,4.97
2019-03-17T05:25:06.606Z,5.01
2019-03-17T05:26:06.612Z,5.02
2019-03-17T05:27:06.585Z,5.08
2019-03-17T05:28:06.591Z,5.07
2019-03-17T05:29:06.599Z,5.1
2019-03-17T05:30:06.580Z,5.12
2019-03-17T05:31:06.587Z,5.15
2019-03-17T05:32:06.594Z,5.17
2019-03-17T05:33:06.695Z,5.2
2019-03-17T05:34:06.580Z,5.25
2019-03-17T05:35:06.590Z,5.27
2019-03-17T05:36:06.605Z,5.28
2019-03-17T05:37:07.422Z,5.33
2019-03-17T05:38:06.607Z,5.36
2019-03-17T05:39:06.655Z,5.41
2019-03-17T05:40:06.595Z,5.46
2019-03-17T05:41:06.589Z,5.51
2019-03-17T05:42:06.576Z,5.52
2019-03-17T05:43:06.566Z,5.65
2019-03-17T05:44:06.580Z,5.66
2019-03-17T05:45:06.575Z,5.63
2019-03-17T05:46:06.570Z,5.67
2019-03-17T05:47:06.613Z,5.67
2019-03-17T05:48:06.576Z,5.64
2019-03-17T05:49:06.662Z,5.67
2019-03-17T05:50:06.569Z,5.68
2019-03-17T05:51:06.667Z,5.69
2019-03-17T05:52:06.577Z,5.73
2019-03-17T05:53:06.599Z,5.75
2019-03-17T05:54:06.551Z,5.76
2019-03-17T05:55:06.541Z,5.81
2019-03-17T05:56:06.565Z,5.97
2019-03-17T05:57:06.574Z,6.18
2019-03-17T05:58:06.553Z,6.28
2019-03-17T05:59:06.545Z,6.35
2019-03-17T06:00:06.622Z,6.39
2019-03-17T06:01:06.557Z,6.45
2019-03-17T06:02:06.531Z,6.53
2019-03-17T06:03:06.531Z,6.54
2019-03-17T06:04:06.544Z,6.54
2019-03-17T06:05:06.586Z,6.58
2019-03-17T06:06:06.570Z,6.6
2019-03-17T06:07:19.365Z,6.59
2019-03-17T06:08:06.549Z,6.59
2019-03-17T06:09:06.533Z,6.59
2019-03-17T06:10:06.572Z,6.6
2019-03-17T06:11:06.571Z,6.59
2019-03-17T06:12:06.555Z,6.61
2019-03-17T06:13:06.542Z,6.62
2019-03-17T06:14:06.498Z,6.64
2019-03-17T06:15:06.574Z,6.66
2019-03-17T06:16:06.527Z,6.66
2019-03-17T06:17:06.543Z,6.7
2019-03-17T06:18:06.596Z,6.73
2019-03-17T06:19:06.501Z,6.78
2019-03-17T06:20:06.586Z,6.82
2019-03-17T06:21:06.806Z,6.86
2019-03-17T06:22:06.711Z,6.93
2019-03-17T06:23:06.525Z,6.97
2019-03-17T06:24:06.543Z,7.06
2019-03-17T06:25:06.583Z,7.09
2019-03-17T06:26:06.544Z,7.12
2019-03-17T06:27:06.551Z,7.17
2019-03-17T06:28:06.528Z,7.2
2019-03-17T06:29:06.533Z,7.21
2019-03-17T06:30:06.539Z,7.22
2019-03-17T06:31:06.477Z,7.24
2019-03-17T06:32:06.484Z,7.29
2019-03-17T06:33:06.506Z,7.3
2019-03-17T06:34:06.483Z,7.34
2019-03-17T06:35:06.556Z,7.34
2019-03-17T06:36:06.500Z,7.4
2019-03-17T06:37:06.536Z,7.38
2019-03-17T06:38:06.488Z,7.4
2019-03-17T06:39:06.478Z,7.42
2019-03-17T06:40:06.483Z,7.43
2019-03-17T06:41:06.523Z,7.45
2019-03-17T06:42:06.494Z,7.44
2019-03-17T06:43:06.670Z,7.48
2019-03-17T06:44:06.660Z,7.5
2019-03-17T06:45:06.523Z,7.52
2019-03-17T06:46:06.500Z,7.57
2019-03-17T06:47:06.531Z,7.58
2019-03-17T06:48:06.473Z,7.64
2019-03-17T06:49:06.464Z,7.76
2019-03-17T06:50:06.494Z,7.82
2019-03-17T06:51:06.474Z,7.88
2019-03-17T06:52:06.487Z,7.96
2019-03-17T06:53:06.488Z,8.05
2019-03-17T06:54:06.759Z,8.19
2019-03-17T06:55:06.449Z,8.23
2019-03-17T06:56:06.496Z,8.29
2019-03-17T06:57:06.465Z,8.32
2019-03-17T06:58:06.472Z,8.45
2019-03-17T06:59:06.485Z,8.47
2019-03-17T07:00:06.537Z,8.51
2019-03-17T07:01:06.505Z,8.63
2019-03-17T07:02:06.503Z,8.75
2019-03-17T07:03:06.514Z,8.82
2019-03-17T07:04:06.487Z,8.81
2019-03-17T07:05:06.583Z,8.9
2019-03-17T07:06:06.457Z,9.08
2019-03-17T07:07:06.435Z,9.05
2019-03-17T07:08:06.447Z,9.03
2019-03-17T07:09:06.450Z,9.31
2019-03-17T07:10:06.539Z,9.26
2019-03-17T07:11:06.472Z,9.37
2019-03-17T07:12:06.436Z,9.41
2019-03-17T07:13:06.430Z,9.37
2019-03-17T07:14:06.425Z,9.42
2019-03-17T07:15:06.518Z,9.4
2019-03-17T07:16:06.580Z,9.46
2019-03-17T07:17:06.529Z,9.55
2019-03-17T07:18:06.464Z,9.6
2019-03-17T07:19:06.474Z,9.59
2019-03-17T07:20:06.447Z,9.62
2019-03-17T07:21:06.436Z,9.69
2019-03-17T07:22:06.438Z,9.83
2019-03-17T07:23:06.473Z,9.82
2019-03-17T07:24:06.459Z,9.82
2019-03-17T07:25:06.538Z,9.83
2019-03-17T07:26:06.552Z,9.81
2019-03-17T07:27:06.604Z,9.84
2019-03-17T07:28:06.416Z,9.88
2019-03-17T07:29:06.427Z,10.04
2019-03-17T07:30:06.512Z,10.08
2019-03-17T07:31:06.452Z,10.15
2019-03-17T07:32:06.416Z,10.22
2019-03-17T07:33:06.441Z,10.23
2019-03-17T07:34:06.451Z,10.23
2019-03-17T07:35:06.417Z,10.28
2019-03-17T07:36:06.439Z,10.28
2019-03-17T07:37:06.480Z,10.32
2019-03-17T07:38:06.428Z,10.37
2019-03-17T07:39:12.757Z,10.38
2019-03-17T07:40:06.426Z,10.46
2019-03-17T07:41:06.503Z,10.42
2019-03-17T07:42:06.507Z,10.51
2019-03-17T07:43:06.480Z,10.5
2019-03-17T07:44:06.396Z,10.48
2019-03-17T07:45:06.401Z,10.5
2019-03-17T07:46:06.384Z,10.5
2019-03-17T07:47:06.490Z,10.51
2019-03-17T07:48:06.529Z,10.53
2019-03-17T07:49:06.473Z,10.53
2019-03-17T07:50:06.493Z,10.63
2019-03-17T07:51:06.417Z,10.66
2019-03-17T07:52:06.393Z,10.61
2019-03-17T07:53:06.409Z,10.64
2019-03-17T07:54:06.429Z,10.73
2019-03-17T07:55:06.418Z,10.84
2019-03-17T07:56:06.448Z,10.84
2019-03-17T07:57:06.545Z,10.84
2019-03-17T07:58:06.781Z,10.98
2019-03-17T07:59:06.493Z,10.99
2019-03-17T08:00:06.477Z,11.09
2019-03-17T08:01:06.349Z,11.13
2019-03-17T08:02:06.377Z,11.16
2019-03-17T08:03:06.435Z,11.2
2019-03-17T08:04:06.374Z,11.15
2019-03-17T08:05:06.404Z,11.23
2019-03-17T08:06:06.402Z,11.28
2019-03-17T08:07:06.371Z,11.28
2019-03-17T08:08:10.344Z,11.32
2019-03-17T08:09:06.372Z,11.37
2019-03-17T08:10:06.384Z,11.32
2019-03-17T08:11:06.393Z,11.33
2019-03-17T08:12:06.381Z,11.36
2019-03-17T08:13:06.470Z,11.39
2019-03-17T08:14:06.362Z,11.38
2019-03-17T08:15:06.380Z,11.42
2019-03-17T08:16:06.344Z,11.44
2019-03-17T08:17:06.349Z,11.47
2019-03-17T08:18:06.361Z,11.52
2019-03-17T08:19:06.493Z,11.56
2019-03-17T08:20:06.419Z,11.59
2019-03-17T08:21:06.351Z,11.56
2019-03-17T08:22:06.335Z,11.55
2019-03-17T08:23:06.347Z,11.56
2019-03-17T08:24:06.352Z,11.59
2019-03-17T08:25:06.358Z,11.56
2019-03-17T08:26:06.332Z,11.59
2019-03-17T08:27:06.351Z,11.62
2019-03-17T08:28:06.397Z,11.63
2019-03-17T08:29:06.313Z,11.63
2019-03-17T08:30:06.416Z,11.66
2019-03-17T08:31:06.352Z,11.63
2019-03-17T08:32:06.328Z,11.64
2019-03-17T08:33:06.335Z,11.7
2019-03-17T08:34:06.320Z,11.72
2019-03-17T08:35:06.478Z,11.76
2019-03-17T08:36:06.379Z,11.77
2019-03-17T08:37:06.327Z,11.77
2019-03-17T08:38:06.324Z,11.79
2019-03-17T08:39:06.354Z,11.79
2019-03-17T08:40:06.730Z,11.83
2019-03-17T08:41:06.365Z,11.85
2019-03-17T08:42:06.351Z,11.83
2019-03-17T08:43:06.330Z,11.87
2019-03-17T08:44:06.335Z,11.87
2019-03-17T08:45:06.341Z,11.89
2019-03-17T08:46:06.350Z,11.92
2019-03-17T08:47:06.331Z,11.94
2019-03-17T08:48:06.295Z,11.99
2019-03-17T08:49:06.348Z,11.99
2019-03-17T08:50:06.366Z,12
2019-03-17T08:51:06.366Z,12.01
2019-03-17T08:52:06.324Z,12.01
2019-03-17T08:53:06.346Z,12.05
2019-03-17T08:54:06.317Z,12.08
2019-03-17T08:55:06.391Z,12.08
2019-03-17T08:56:06.300Z,12.14
2019-03-17T08:57:06.289Z,12.17
2019-03-17T08:58:06.307Z,12.2
2019-03-17T08:59:06.280Z,12.19
2019-03-17T09:00:06.290Z,12.18
2019-03-17T09:01:06.419Z,12.14
2019-03-17T09:02:06.426Z,12.17
2019-03-17T09:03:06.288Z,12.16
2019-03-17T09:04:06.280Z,12.17
2019-03-17T09:05:06.301Z,12.17
2019-03-17T09:06:06.287Z,12.16
2019-03-17T09:07:06.281Z,12.14
2019-03-17T09:08:06.356Z,12.16
2019-03-17T09:09:06.286Z,12.13
2019-03-17T09:10:06.319Z,12.16
2019-03-17T09:11:06.259Z,12.18
2019-03-17T09:12:06.265Z,12.19
2019-03-17T09:13:06.270Z,12.19
2019-03-17T09:14:06.277Z,12.19
2019-03-17T09:15:06.287Z,12.22
2019-03-17T09:16:06.266Z,12.24
2019-03-17T09:17:15.203Z,12.22
2019-03-17T09:18:06.309Z,12.26
2019-03-17T09:19:06.263Z,12.28
2019-03-17T09:20:06.288Z,12.29
2019-03-17T09:21:06.285Z,12.29
2019-03-17T09:22:06.258Z,12.29
2019-03-17T09:23:06.295Z,12.3
2019-03-17T09:24:17.891Z,12.27
2019-03-17T09:25:06.273Z,12.27
2019-03-17T09:26:06.259Z,12.34
2019-03-17T09:27:06.233Z,12.31
2019-03-17T09:28:06.262Z,12.32
2019-03-17T09:29:06.383Z,12.34
2019-03-17T09:30:06.309Z,12.36
2019-03-17T09:31:08.021Z,12.39
2019-03-17T09:32:06.238Z,12.43
2019-03-17T09:33:06.271Z,12.42
2019-03-17T09:34:06.243Z,12.46
2019-03-17T09:35:06.244Z,12.46
2019-03-17T09:36:06.237Z,12.48
2019-03-17T09:37:06.329Z,12.48
2019-03-17T09:38:06.243Z,12.5
2019-03-17T09:39:06.276Z,12.51
2019-03-17T09:40:06.262Z,12.56
2019-03-17T09:41:06.254Z,12.62
2019-03-17T09:42:06.259Z,12.6
2019-03-17T09:43:06.302Z,12.6
2019-03-17T09:44:06.387Z,12.63
2019-03-17T09:45:06.764Z,12.62
2019-03-17T09:46:06.291Z,12.65
2019-03-17T09:47:06.335Z,12.63
2019-03-17T09:48:06.305Z,12.64
2019-03-17T09:49:06.260Z,12.64
2019-03-17T09:50:06.211Z,12.61
2019-03-17T09:51:06.274Z,12.62
2019-03-17T09:52:06.335Z,12.62
2019-03-17T09:53:06.220Z,12.6
2019-03-17T09:54:06.359Z,12.56
2019-03-17T09:55:06.203Z,12.56
2019-03-17T09:56:06.220Z,12.55
2019-03-17T09:57:06.351Z,12.52
2019-03-17T09:58:06.204Z,12.49
2019-03-17T09:59:06.269Z,12.44
2019-03-17T10:00:06.199Z,12.47
2019-03-17T10:01:06.185Z,12.46
2019-03-17T10:02:06.261Z,12.44
2019-03-17T10:03:06.195Z,12.43
2019-03-17T10:04:06.239Z,12.43
2019-03-17T10:05:06.294Z,12.43
2019-03-17T10:06:06.273Z,12.42
2019-03-17T10:07:06.735Z,12.4
2019-03-17T10:08:06.349Z,12.41
2019-03-17T10:09:06.213Z,12.42
2019-03-17T10:10:06.194Z,12.39
2019-03-17T10:11:06.291Z,12.42
2019-03-17T10:12:06.185Z,12.38
2019-03-17T10:13:06.210Z,12.41
2019-03-17T10:14:06.188Z,12.5
2019-03-17T10:15:06.207Z,12.51
2019-03-17T10:16:06.200Z,12.52
2019-03-17T10:17:06.195Z,12.52
2019-03-17T10:18:06.228Z,12.53
2019-03-17T10:19:06.194Z,12.56
2019-03-17T10:20:06.178Z,12.57
2019-03-17T10:21:06.177Z,12.56
2019-03-17T10:22:06.159Z,12.55
2019-03-17T10:23:06.206Z,12.55
2019-03-17T10:24:06.193Z,12.54
2019-03-17T10:25:06.197Z,12.49
2019-03-17T10:26:06.171Z,12.46
2019-03-17T10:27:06.272Z,12.44
2019-03-17T10:28:06.165Z,12.45
2019-03-17T10:29:06.324Z,12.46
2019-03-17T10:30:06.208Z,12.44
2019-03-17T10:31:06.239Z,12.44
2019-03-17T10:32:06.221Z,12.42
2019-03-17T10:33:06.204Z,12.42
2019-03-17T10:34:06.208Z,12.42
2019-03-17T10:35:06.238Z,12.43
2019-03-17T10:36:06.168Z,12.43
2019-03-17T10:37:06.208Z,12.4
2019-03-17T10:38:06.164Z,12.42
2019-03-17T10:39:13.079Z,12.43
2019-03-17T10:40:06.178Z,12.43
2019-03-17T10:41:06.246Z,12.43
2019-03-17T10:42:06.261Z,12.42
2019-03-17T10:43:06.173Z,12.42
2019-03-17T10:44:06.207Z,12.42
2019-03-17T10:45:06.168Z,12.39
2019-03-17T10:46:06.169Z,12.44
2019-03-17T10:47:06.184Z,12.46
2019-03-17T10:48:06.159Z,12.45
2019-03-17T10:49:06.162Z,12.49
2019-03-17T10:50:06.199Z,12.47
2019-03-17T10:51:06.388Z,12.5
2019-03-17T10:52:06.242Z,12.48
2019-03-17T10:53:06.196Z,12.47
2019-03-17T10:54:06.163Z,12.53
2019-03-17T10:55:06.146Z,12.53
2019-03-17T10:56:06.169Z,12.52
2019-03-17T10:57:06.209Z,12.59
2019-03-17T10:58:06.159Z,12.6
2019-03-17T10:59:06.130Z,12.67
2019-03-17T11:00:06.194Z,12.68
2019-03-17T11:01:06.235Z,12.7
2019-03-17T11:02:06.202Z,12.8
2019-03-17T11:03:06.168Z,12.85
2019-03-17T11:04:06.144Z,12.89
2019-03-17T11:05:06.257Z,12.93
2019-03-17T11:06:06.322Z,12.95
2019-03-17T11:07:06.204Z,12.98
2019-03-17T11:08:06.150Z,13.03
2019-03-17T11:09:06.145Z,13.1
2019-03-17T11:10:06.292Z,13.13
2019-03-17T11:11:06.154Z,13.14
2019-03-17T11:12:06.224Z,13.14
2019-03-17T11:13:06.237Z,13.14
2019-03-17T11:14:06.156Z,13.17
2019-03-17T11:15:06.236Z,13.2
2019-03-17T11:16:06.136Z,13.24
2019-03-17T11:17:06.278Z,13.25
2019-03-17T11:18:06.201Z,13.27
2019-03-17T11:19:06.129Z,13.26
2019-03-17T11:20:06.205Z,13.26
2019-03-17T11:21:06.142Z,13.26
2019-03-17T11:22:06.230Z,13.24
2019-03-17T11:23:06.150Z,13.24
2019-03-17T11:24:06.137Z,13.22
2019-03-17T11:25:06.121Z,13.19
2019-03-17T11:26:06.135Z,13.17
2019-03-17T11:27:06.434Z,13.18
2019-03-17T11:28:06.115Z,13.18
2019-03-17T11:29:06.232Z,13.18
2019-03-17T11:30:06.128Z,13.17
2019-03-17T11:31:06.141Z,13.16
2019-03-17T11:32:07.095Z,13.15
2019-03-17T11:33:06.126Z,13.08
2019-03-17T11:34:06.142Z,13.07
2019-03-17T11:35:06.097Z,13.08
2019-03-17T11:36:06.550Z,13.06
2019-03-17T11:37:06.088Z,13.05
2019-03-17T11:38:06.091Z,13.06
2019-03-17T11:39:06.085Z,13.05
2019-03-17T11:40:06.217Z,13.04
2019-03-17T11:41:06.129Z,13.06
2019-03-17T11:42:06.067Z,13.08
2019-03-17T11:43:06.072Z,13.11
2019-03-17T11:44:06.104Z,13.06
2019-03-17T11:45:06.100Z,13.03
2019-03-17T11:46:06.082Z,13.02
2019-03-17T11:47:06.091Z,13.03
2019-03-17T11:48:06.200Z,13.05
2019-03-17T11:49:06.068Z,13.06
2019-03-17T11:50:06.067Z,13.06
2019-03-17T11:51:06.121Z,13.02
2019-03-17T11:52:06.089Z,12.98
2019-03-17T11:53:06.102Z,13
2019-03-17T11:54:06.122Z,13
2019-03-17T11:55:06.068Z,12.99
2019-03-17T11:56:06.222Z,12.96
2019-03-17T11:57:06.073Z,12.91
2019-03-17T11:58:06.079Z,12.85
2019-03-17T11:59:06.088Z,12.78
2019-03-17T12:00:06.071Z,12.76
2019-03-17T12:01:06.146Z,12.72
2019-03-17T12:02:06.077Z,12.74
2019-03-17T12:03:06.046Z,12.71
2019-03-17T12:04:06.073Z,12.68
2019-03-17T12:05:06.040Z,12.62
2019-03-17T12:06:06.109Z,12.62
2019-03-17T12:07:06.071Z,12.57
2019-03-17T12:08:06.404Z,12.54
2019-03-17T12:09:06.096Z,12.54
2019-03-17T12:10:06.173Z,12.53
2019-03-17T12:11:06.110Z,12.51
2019-03-17T12:12:06.141Z,12.49
2019-03-17T12:13:06.109Z,12.46
2019-03-17T12:14:06.053Z,12.41
2019-03-17T12:15:06.117Z,12.4
2019-03-17T12:16:06.102Z,12.31
2019-03-17T12:17:06.285Z,12.31
2019-03-17T12:18:06.036Z,12.18
2019-03-17T12:19:06.004Z,12.11
2019-03-17T12:20:06.097Z,12.1
2019-03-17T12:21:06.046Z,12.08
2019-03-17T12:22:09.983Z,12.02
2019-03-17T12:23:06.117Z,11.98
2019-03-17T12:24:06.033Z,11.94
2019-03-17T12:25:06.062Z,11.85
2019-03-17T12:26:06.064Z,11.86
2019-03-17T12:27:06.040Z,11.8
2019-03-17T12:28:06.019Z,11.77
2019-03-17T12:29:06.058Z,11.79
2019-03-17T12:30:06.014Z,11.74
2019-03-17T12:31:06.031Z,11.7
2019-03-17T12:32:06.044Z,11.67
2019-03-17T12:33:06.107Z,11.63
2019-03-17T12:34:06.003Z,11.65
2019-03-17T12:35:05.990Z,11.6
2019-03-17T12:36:06.023Z,11.58
2019-03-17T12:37:06.007Z,11.56
2019-03-17T12:38:06.057Z,11.52
2019-03-17T12:39:06.223Z,11.47
2019-03-17T12:40:06.090Z,11.44
2019-03-17T12:41:06.010Z,11.26
2019-03-17T12:42:06.018Z,11.01
2019-03-17T12:43:06.028Z,10.95
2019-03-17T12:44:06.880Z,10.73
2019-03-17T12:45:06.034Z,10.49
2019-03-17T12:46:05.996Z,9.94
2019-03-17T12:47:06.000Z,9.72
2019-03-17T12:48:06.025Z,9.65
2019-03-17T12:49:05.982Z,9.52
2019-03-17T12:50:06.020Z,9.37
2019-03-17T12:51:05.985Z,9.24
2019-03-17T12:52:06.816Z,9.18
2019-03-17T12:53:08.431Z,9.16
2019-03-17T12:54:06.000Z,9.11
2019-03-17T12:55:05.984Z,8.85
2019-03-17T12:56:05.998Z,8.78
2019-03-17T12:57:05.992Z,8.63
2019-03-17T12:58:05.995Z,8.65
2019-03-17T12:59:06.001Z,8.61
2019-03-17T13:00:05.977Z,8.66
2019-03-17T13:01:06.113Z,8.64
2019-03-17T13:02:06.056Z,8.72
2019-03-17T13:03:06.013Z,8.64
2019-03-17T13:04:05.983Z,8.56
2019-03-17T13:05:05.974Z,8.51
2019-03-17T13:06:05.996Z,8.47
2019-03-17T13:07:05.971Z,8.4
2019-03-17T13:08:05.993Z,8.36
2019-03-17T13:09:06.076Z,8.36
2019-03-17T13:10:17.138Z,8.39